sensor_id;sensor_type;location;lat;lon;timestamp;P1;durP1;ratioP1;P2;durP2;ratioP2
67597;SDS011;62026;39.230;9.122;2023-05-27T00:01:08;8.70;;;3.13;;
67597;SDS011;62026;39.230;9.122;2023-05-27T00:03:34;7.32;;;3.10;;
67597;SDS011;62026;39.230;9.122;2023-05-27T00:06:00;11.65;;;3.35;;
67597;SDS011;62026;39.230;9.122;2023-05-27T00:08:26;5.65;;;2.60;;
67597;SDS011;62026;39.230;9.122;2023-05-27T00:10:53;9.15;;;2.97;;
67597;SDS011;62026;39.230;9.122;2023-05-27T00:13:19;10.00;;;2.88;;
67597;SDS011;62026;39.230;9.122;2023-05-27T00:15:45;11.20;;;3.47;;
67597;SDS011;62026;39.230;9.122;2023-05-27T00:18:11;8.80;;;3.25;;
67597;SDS011;62026;39.230;9.122;2023-05-27T00:20:37;9.90;;;3.50;;
67597;SDS011;62026;39.230;9.122;2023-05-27T00:23:03;7.65;;;2.90;;
67597;SDS011;62026;39.230;9.122;2023-05-27T00:25:29;6.85;;;2.75;;
67597;SDS011;62026;39.230;9.122;2023-05-27T00:27:56;8.18;;;2.67;;
67597;SDS011;62026;39.230;9.122;2023-05-27T00:30:24;7.55;;;2.78;;
67597;SDS011;62026;39.230;9.122;2023-05-27T00:32:50;10.02;;;2.80;;
67597;SDS011;62026;39.230;9.122;2023-05-27T00:35:16;7.32;;;2.60;;
67597;SDS011;62026;39.230;9.122;2023-05-27T00:37:42;7.38;;;3.20;;
67597;SDS011;62026;39.230;9.122;2023-05-27T00:40:09;11.88;;;2.95;;
67597;SDS011;62026;39.230;9.122;2023-05-27T00:42:37;6.18;;;3.17;;
67597;SDS011;62026;39.230;9.122;2023-05-27T00:45:03;10.48;;;2.95;;
67597;SDS011;62026;39.230;9.122;2023-05-27T00:47:31;7.88;;;2.72;;
67597;SDS011;62026;39.230;9.122;2023-05-27T00:50:00;16.67;;;4.20;;
67597;SDS011;62026;39.230;9.122;2023-05-27T00:52:28;10.85;;;3.70;;
67597;SDS011;62026;39.230;9.122;2023-05-27T00:54:55;8.48;;;3.50;;
67597;SDS011;62026;39.230;9.122;2023-05-27T00:57:23;13.10;;;3.70;;
67597;SDS011;62026;39.230;9.122;2023-05-27T00:59:49;8.95;;;3.33;;
67597;SDS011;62026;39.230;9.122;2023-05-27T01:02:15;7.40;;;3.25;;
67597;SDS011;62026;39.230;9.122;2023-05-27T01:04:41;7.97;;;3.45;;
67597;SDS011;62026;39.230;9.122;2023-05-27T01:07:10;6.55;;;3.20;;
67597;SDS011;62026;39.230;9.122;2023-05-27T01:10:08;8.75;;;3.50;;
67597;SDS011;62026;39.230;9.122;2023-05-27T01:12:48;9.48;;;3.47;;
67597;SDS011;62026;39.230;9.122;2023-05-27T01:15:44;11.57;;;3.33;;
67597;SDS011;62026;39.230;9.122;2023-05-27T01:18:12;10.25;;;3.33;;
67597;SDS011;62026;39.230;9.122;2023-05-27T01:20:43;8.35;;;3.63;;
67597;SDS011;62026;39.230;9.122;2023-05-27T01:23:13;8.70;;;3.10;;
67597;SDS011;62026;39.230;9.122;2023-05-27T01:25:39;9.02;;;3.55;;
67597;SDS011;62026;39.230;9.122;2023-05-27T01:28:05;9.93;;;3.53;;
67597;SDS011;62026;39.230;9.122;2023-05-27T01:30:31;8.85;;;3.38;;
67597;SDS011;62026;39.230;9.122;2023-05-27T01:33:04;8.00;;;3.17;;
67597;SDS011;62026;39.230;9.122;2023-05-27T01:35:41;7.93;;;3.30;;
67597;SDS011;62026;39.230;9.122;2023-05-27T01:38:14;12.90;;;3.17;;
67597;SDS011;62026;39.230;9.122;2023-05-27T01:40:45;11.10;;;3.60;;
67597;SDS011;62026;39.230;9.122;2023-05-27T01:43:14;9.18;;;3.42;;
67597;SDS011;62026;39.230;9.122;2023-05-27T01:45:41;8.68;;;3.35;;
67597;SDS011;62026;39.230;9.122;2023-05-27T01:48:08;13.52;;;3.30;;
67597;SDS011;62026;39.230;9.122;2023-05-27T01:50:35;8.35;;;2.95;;
67597;SDS011;62026;39.230;9.122;2023-05-27T01:53:02;10.15;;;3.72;;
67597;SDS011;62026;39.230;9.122;2023-05-27T01:55:29;5.43;;;3.47;;
67597;SDS011;62026;39.230;9.122;2023-05-27T01:57:57;5.68;;;3.25;;
67597;SDS011;62026;39.230;9.122;2023-05-27T02:00:23;7.97;;;3.25;;
67597;SDS011;62026;39.230;9.122;2023-05-27T02:02:51;14.43;;;5.05;;
67597;SDS011;62026;39.230;9.122;2023-05-27T02:05:17;11.27;;;3.22;;
67597;SDS011;62026;39.230;9.122;2023-05-27T02:07:43;12.13;;;3.58;;
67597;SDS011;62026;39.230;9.122;2023-05-27T02:10:09;15.77;;;4.10;;
67597;SDS011;62026;39.230;9.122;2023-05-27T02:12:36;12.43;;;3.97;;
67597;SDS011;62026;39.230;9.122;2023-05-27T02:15:03;7.57;;;3.20;;
67597;SDS011;62026;39.230;9.122;2023-05-27T02:17:29;9.00;;;3.20;;
67597;SDS011;62026;39.230;9.122;2023-05-27T02:19:56;9.93;;;3.20;;
67597;SDS011;62026;39.230;9.122;2023-05-27T02:22:22;10.27;;;3.40;;
67597;SDS011;62026;39.230;9.122;2023-05-27T02:24:48;10.23;;;3.60;;
67597;SDS011;62026;39.230;9.122;2023-05-27T02:27:14;9.15;;;3.70;;
67597;SDS011;62026;39.230;9.122;2023-05-27T02:29:41;9.70;;;3.85;;
67597;SDS011;62026;39.230;9.122;2023-05-27T02:32:07;13.35;;;4.15;;
67597;SDS011;62026;39.230;9.122;2023-05-27T02:34:33;9.57;;;3.75;;
67597;SDS011;62026;39.230;9.122;2023-05-27T02:37:04;9.90;;;3.78;;
67597;SDS011;62026;39.230;9.122;2023-05-27T02:39:30;8.13;;;3.53;;
67597;SDS011;62026;39.230;9.122;2023-05-27T02:41:56;13.90;;;3.75;;
67597;SDS011;62026;39.230;9.122;2023-05-27T02:44:22;7.38;;;3.50;;
67597;SDS011;62026;39.230;9.122;2023-05-27T02:46:50;9.57;;;3.88;;
67597;SDS011;62026;39.230;9.122;2023-05-27T02:49:16;11.95;;;4.07;;
67597;SDS011;62026;39.230;9.122;2023-05-27T02:51:43;13.18;;;4.10;;
67597;SDS011;62026;39.230;9.122;2023-05-27T02:54:09;9.65;;;3.25;;
67597;SDS011;62026;39.230;9.122;2023-05-27T02:56:35;10.65;;;3.60;;
67597;SDS011;62026;39.230;9.122;2023-05-27T02:59:01;10.30;;;3.30;;
67597;SDS011;62026;39.230;9.122;2023-05-27T03:01:27;9.63;;;3.50;;
67597;SDS011;62026;39.230;9.122;2023-05-27T03:03:53;8.45;;;3.55;;
67597;SDS011;62026;39.230;9.122;2023-05-27T03:06:19;10.20;;;3.53;;
67597;SDS011;62026;39.230;9.122;2023-05-27T03:08:45;12.93;;;3.38;;
67597;SDS011;62026;39.230;9.122;2023-05-27T03:11:11;9.25;;;3.17;;
67597;SDS011;62026;39.230;9.122;2023-05-27T03:13:37;9.73;;;3.45;;
67597;SDS011;62026;39.230;9.122;2023-05-27T03:16:04;15.23;;;3.50;;
67597;SDS011;62026;39.230;9.122;2023-05-27T03:18:31;7.13;;;3.20;;
67597;SDS011;62026;39.230;9.122;2023-05-27T03:20:57;8.02;;;2.85;;
67597;SDS011;62026;39.230;9.122;2023-05-27T03:23:23;7.35;;;3.17;;
67597;SDS011;62026;39.230;9.122;2023-05-27T03:25:49;11.27;;;3.28;;
67597;SDS011;62026;39.230;9.122;2023-05-27T03:28:16;8.75;;;2.97;;
67597;SDS011;62026;39.230;9.122;2023-05-27T03:30:42;6.20;;;3.40;;
67597;SDS011;62026;39.230;9.122;2023-05-27T03:33:13;9.38;;;3.60;;
67597;SDS011;62026;39.230;9.122;2023-05-27T03:35:39;6.82;;;3.30;;
67597;SDS011;62026;39.230;9.122;2023-05-27T03:38:05;12.38;;;3.60;;
67597;SDS011;62026;39.230;9.122;2023-05-27T03:40:32;8.80;;;3.10;;
67597;SDS011;62026;39.230;9.122;2023-05-27T03:42:58;11.00;;;3.50;;
67597;SDS011;62026;39.230;9.122;2023-05-27T03:45:24;10.80;;;4.05;;
67597;SDS011;62026;39.230;9.122;2023-05-27T03:47:51;11.73;;;3.85;;
67597;SDS011;62026;39.230;9.122;2023-05-27T03:50:19;6.40;;;3.22;;
67597;SDS011;62026;39.230;9.122;2023-05-27T03:52:46;6.50;;;3.50;;
67597;SDS011;62026;39.230;9.122;2023-05-27T03:55:12;11.48;;;3.03;;
67597;SDS011;62026;39.230;9.122;2023-05-27T03:57:39;9.70;;;3.10;;
67597;SDS011;62026;39.230;9.122;2023-05-27T04:00:06;8.15;;;3.25;;
67597;SDS011;62026;39.230;9.122;2023-05-27T04:02:47;7.28;;;2.97;;
67597;SDS011;62026;39.230;9.122;2023-05-27T04:05:14;8.05;;;3.30;;
67597;SDS011;62026;39.230;9.122;2023-05-27T04:07:42;10.00;;;3.20;;
67597;SDS011;62026;39.230;9.122;2023-05-27T04:10:08;7.90;;;3.38;;
67597;SDS011;62026;39.230;9.122;2023-05-27T04:12:34;11.07;;;3.45;;
67597;SDS011;62026;39.230;9.122;2023-05-27T04:15:00;8.05;;;3.38;;
67597;SDS011;62026;39.230;9.122;2023-05-27T04:17:29;8.60;;;3.25;;
67597;SDS011;62026;39.230;9.122;2023-05-27T04:19:55;7.68;;;3.30;;
67597;SDS011;62026;39.230;9.122;2023-05-27T04:22:23;7.50;;;3.30;;
67597;SDS011;62026;39.230;9.122;2023-05-27T04:24:48;12.38;;;4.03;;
67597;SDS011;62026;39.230;9.122;2023-05-27T04:27:15;5.65;;;2.92;;
67597;SDS011;62026;39.230;9.122;2023-05-27T04:29:44;10.10;;;3.75;;
67597;SDS011;62026;39.230;9.122;2023-05-27T04:32:11;7.97;;;3.33;;
67597;SDS011;62026;39.230;9.122;2023-05-27T04:34:38;6.80;;;3.30;;
67597;SDS011;62026;39.230;9.122;2023-05-27T04:37:07;9.02;;;3.53;;
67597;SDS011;62026;39.230;9.122;2023-05-27T04:39:36;8.38;;;3.38;;
67597;SDS011;62026;39.230;9.122;2023-05-27T04:42:02;9.88;;;3.38;;
67597;SDS011;62026;39.230;9.122;2023-05-27T04:44:31;8.63;;;3.42;;
67597;SDS011;62026;39.230;9.122;2023-05-27T04:46:59;11.40;;;3.90;;
67597;SDS011;62026;39.230;9.122;2023-05-27T04:49:25;11.20;;;3.60;;
67597;SDS011;62026;39.230;9.122;2023-05-27T04:51:52;12.55;;;3.83;;
67597;SDS011;62026;39.230;9.122;2023-05-27T04:54:20;15.27;;;3.90;;
67597;SDS011;62026;39.230;9.122;2023-05-27T04:56:46;8.05;;;3.33;;
67597;SDS011;62026;39.230;9.122;2023-05-27T04:59:19;7.60;;;3.70;;
67597;SDS011;62026;39.230;9.122;2023-05-27T05:01:47;10.07;;;3.67;;
67597;SDS011;62026;39.230;9.122;2023-05-27T05:04:34;10.50;;;3.60;;
67597;SDS011;62026;39.230;9.122;2023-05-27T05:07:02;9.98;;;3.60;;
67597;SDS011;62026;39.230;9.122;2023-05-27T05:09:30;12.10;;;3.63;;
67597;SDS011;62026;39.230;9.122;2023-05-27T05:14:33;12.70;;;3.53;;
67597;SDS011;62026;39.230;9.122;2023-05-27T05:16:59;9.38;;;3.55;;
67597;SDS011;62026;39.230;9.122;2023-05-27T05:19:25;8.52;;;3.15;;
67597;SDS011;62026;39.230;9.122;2023-05-27T05:21:51;10.85;;;3.50;;
67597;SDS011;62026;39.230;9.122;2023-05-27T05:24:17;8.63;;;3.10;;
67597;SDS011;62026;39.230;9.122;2023-05-27T05:26:44;5.72;;;3.40;;
67597;SDS011;62026;39.230;9.122;2023-05-27T05:29:11;5.72;;;3.20;;
67597;SDS011;62026;39.230;9.122;2023-05-27T05:31:37;8.23;;;3.17;;
67597;SDS011;62026;39.230;9.122;2023-05-27T05:34:03;12.20;;;4.05;;
67597;SDS011;62026;39.230;9.122;2023-05-27T05:36:32;9.10;;;3.50;;
67597;SDS011;62026;39.230;9.122;2023-05-27T05:39:03;12.07;;;4.00;;
67597;SDS011;62026;39.230;9.122;2023-05-27T05:41:30;7.25;;;3.38;;
67597;SDS011;62026;39.230;9.122;2023-05-27T05:43:56;10.32;;;3.78;;
67597;SDS011;62026;39.230;9.122;2023-05-27T05:46:22;12.13;;;3.42;;
67597;SDS011;62026;39.230;9.122;2023-05-27T05:48:51;12.50;;;3.85;;
67597;SDS011;62026;39.230;9.122;2023-05-27T05:51:26;14.27;;;3.88;;
67597;SDS011;62026;39.230;9.122;2023-05-27T05:53:56;11.88;;;3.40;;
67597;SDS011;62026;39.230;9.122;2023-05-27T05:56:23;10.82;;;3.35;;
67597;SDS011;62026;39.230;9.122;2023-05-27T05:58:51;6.15;;;3.92;;
67597;SDS011;62026;39.230;9.122;2023-05-27T06:01:18;8.85;;;3.35;;
67597;SDS011;62026;39.230;9.122;2023-05-27T06:03:45;8.43;;;3.20;;
67597;SDS011;62026;39.230;9.122;2023-05-27T06:06:26;9.23;;;3.03;;
67597;SDS011;62026;39.230;9.122;2023-05-27T06:09:28;15.50;;;3.10;;
67597;SDS011;62026;39.230;9.122;2023-05-27T06:11:57;13.43;;;3.33;;
67597;SDS011;62026;39.230;9.122;2023-05-27T06:14:24;9.23;;;3.13;;
67597;SDS011;62026;39.230;9.122;2023-05-27T06:16:53;7.88;;;3.20;;
67597;SDS011;62026;39.230;9.122;2023-05-27T06:19:19;11.98;;;4.45;;
67597;SDS011;62026;39.230;9.122;2023-05-27T06:21:46;11.07;;;3.45;;
67597;SDS011;62026;39.230;9.122;2023-05-27T06:24:27;6.15;;;3.20;;
67597;SDS011;62026;39.230;9.122;2023-05-27T06:27:02;10.00;;;3.15;;
67597;SDS011;62026;39.230;9.122;2023-05-27T06:29:29;13.15;;;2.88;;
67597;SDS011;62026;39.230;9.122;2023-05-27T06:31:56;11.60;;;3.50;;
67597;SDS011;62026;39.230;9.122;2023-05-27T06:34:22;10.60;;;3.00;;
67597;SDS011;62026;39.230;9.122;2023-05-27T06:36:48;10.38;;;3.05;;
67597;SDS011;62026;39.230;9.122;2023-05-27T06:39:15;9.80;;;2.97;;
67597;SDS011;62026;39.230;9.122;2023-05-27T06:41:41;9.95;;;3.10;;
67597;SDS011;62026;39.230;9.122;2023-05-27T06:44:26;7.32;;;3.05;;
67597;SDS011;62026;39.230;9.122;2023-05-27T06:46:58;14.05;;;3.30;;
67597;SDS011;62026;39.230;9.122;2023-05-27T06:49:30;8.70;;;2.97;;
67597;SDS011;62026;39.230;9.122;2023-05-27T06:51:58;11.10;;;3.60;;
67597;SDS011;62026;39.230;9.122;2023-05-27T06:54:26;8.35;;;3.15;;
67597;SDS011;62026;39.230;9.122;2023-05-27T06:57:02;13.15;;;3.45;;
67597;SDS011;62026;39.230;9.122;2023-05-27T06:59:51;10.63;;;2.97;;
67597;SDS011;62026;39.230;9.122;2023-05-27T07:02:17;9.18;;;3.00;;
67597;SDS011;62026;39.230;9.122;2023-05-27T07:04:44;7.60;;;3.03;;
67597;SDS011;62026;39.230;9.122;2023-05-27T07:07:10;9.35;;;3.55;;
67597;SDS011;62026;39.230;9.122;2023-05-27T07:09:36;8.88;;;3.17;;
67597;SDS011;62026;39.230;9.122;2023-05-27T07:12:02;11.88;;;4.22;;
67597;SDS011;62026;39.230;9.122;2023-05-27T07:14:47;8.38;;;2.85;;
67597;SDS011;62026;39.230;9.122;2023-05-27T07:17:13;9.68;;;2.95;;
67597;SDS011;62026;39.230;9.122;2023-05-27T07:19:40;11.13;;;2.90;;
67597;SDS011;62026;39.230;9.122;2023-05-27T07:22:11;8.10;;;2.72;;
67597;SDS011;62026;39.230;9.122;2023-05-27T07:24:37;12.23;;;2.90;;
67597;SDS011;62026;39.230;9.122;2023-05-27T07:27:03;9.38;;;3.10;;
67597;SDS011;62026;39.230;9.122;2023-05-27T07:29:31;9.70;;;3.05;;
67597;SDS011;62026;39.230;9.122;2023-05-27T07:32:17;6.65;;;3.03;;
67597;SDS011;62026;39.230;9.122;2023-05-27T07:34:43;7.57;;;3.10;;
67597;SDS011;62026;39.230;9.122;2023-05-27T07:37:09;11.30;;;3.58;;
67597;SDS011;62026;39.230;9.122;2023-05-27T07:39:36;9.63;;;3.03;;
67597;SDS011;62026;39.230;9.122;2023-05-27T07:42:02;9.55;;;3.40;;
67597;SDS011;62026;39.230;9.122;2023-05-27T07:44:29;8.52;;;3.55;;
67597;SDS011;62026;39.230;9.122;2023-05-27T07:46:56;13.05;;;3.95;;
67597;SDS011;62026;39.230;9.122;2023-05-27T07:49:22;11.07;;;3.17;;
67597;SDS011;62026;39.230;9.122;2023-05-27T07:52:25;10.00;;;3.15;;
67597;SDS011;62026;39.230;9.122;2023-05-27T07:54:51;10.55;;;3.00;;
67597;SDS011;62026;39.230;9.122;2023-05-27T07:57:18;16.63;;;3.13;;
67597;SDS011;62026;39.230;9.122;2023-05-27T07:59:44;11.88;;;3.25;;
67597;SDS011;62026;39.230;9.122;2023-05-27T08:02:11;8.73;;;2.78;;
67597;SDS011;62026;39.230;9.122;2023-05-27T08:04:37;6.97;;;2.63;;
67597;SDS011;62026;39.230;9.122;2023-05-27T08:07:18;12.52;;;2.97;;
67597;SDS011;62026;39.230;9.122;2023-05-27T08:10:02;12.27;;;2.92;;
67597;SDS011;62026;39.230;9.122;2023-05-27T08:12:45;8.27;;;2.58;;
67597;SDS011;62026;39.230;9.122;2023-05-27T08:15:30;6.68;;;2.50;;
67597;SDS011;62026;39.230;9.122;2023-05-27T08:18:23;6.97;;;2.88;;
67597;SDS011;62026;39.230;9.122;2023-05-27T08:21:18;11.70;;;3.38;;
67597;SDS011;62026;39.230;9.122;2023-05-27T08:24:07;10.50;;;3.15;;
67597;SDS011;62026;39.230;9.122;2023-05-27T08:26:46;11.73;;;2.75;;
67597;SDS011;62026;39.230;9.122;2023-05-27T08:29:33;13.65;;;3.47;;
67597;SDS011;62026;39.230;9.122;2023-05-27T08:32:17;11.05;;;3.08;;
67597;SDS011;62026;39.230;9.122;2023-05-27T08:34:43;12.10;;;3.22;;
67597;SDS011;62026;39.230;9.122;2023-05-27T08:37:10;9.75;;;3.03;;
67597;SDS011;62026;39.230;9.122;2023-05-27T08:39:40;10.38;;;2.90;;
67597;SDS011;62026;39.230;9.122;2023-05-27T08:42:20;13.45;;;2.85;;
67597;SDS011;62026;39.230;9.122;2023-05-27T08:44:47;9.02;;;2.58;;
67597;SDS011;62026;39.230;9.122;2023-05-27T08:47:13;5.82;;;2.47;;
67597;SDS011;62026;39.230;9.122;2023-05-27T08:49:41;13.18;;;3.05;;
67597;SDS011;62026;39.230;9.122;2023-05-27T08:52:08;12.05;;;2.83;;
67597;SDS011;62026;39.230;9.122;2023-05-27T08:54:38;6.38;;;2.47;;
67597;SDS011;62026;39.230;9.122;2023-05-27T08:57:07;7.75;;;2.40;;
67597;SDS011;62026;39.230;9.122;2023-05-27T08:59:37;10.30;;;2.75;;
67597;SDS011;62026;39.230;9.122;2023-05-27T09:02:08;5.85;;;2.65;;
67597;SDS011;62026;39.230;9.122;2023-05-27T09:04:41;7.60;;;2.50;;
67597;SDS011;62026;39.230;9.122;2023-05-27T09:07:07;8.07;;;2.55;;
67597;SDS011;62026;39.230;9.122;2023-05-27T09:09:34;9.25;;;2.47;;
67597;SDS011;62026;39.230;9.122;2023-05-27T09:12:03;7.72;;;2.65;;
67597;SDS011;62026;39.230;9.122;2023-05-27T09:14:31;7.57;;;2.50;;
67597;SDS011;62026;39.230;9.122;2023-05-27T09:17:04;12.02;;;2.65;;
67597;SDS011;62026;39.230;9.122;2023-05-27T09:19:32;11.35;;;3.00;;
67597;SDS011;62026;39.230;9.122;2023-05-27T09:21:59;9.90;;;2.72;;
67597;SDS011;62026;39.230;9.122;2023-05-27T09:24:25;6.78;;;2.40;;
67597;SDS011;62026;39.230;9.122;2023-05-27T09:26:52;5.93;;;2.33;;
67597;SDS011;62026;39.230;9.122;2023-05-27T09:29:23;15.10;;;2.10;;
67597;SDS011;62026;39.230;9.122;2023-05-27T09:31:54;6.63;;;2.20;;
67597;SDS011;62026;39.230;9.122;2023-05-27T09:34:23;5.55;;;2.22;;
67597;SDS011;62026;39.230;9.122;2023-05-27T09:36:49;5.45;;;2.58;;
67597;SDS011;62026;39.230;9.122;2023-05-27T09:39:18;7.95;;;2.22;;
67597;SDS011;62026;39.230;9.122;2023-05-27T09:41:53;13.13;;;2.72;;
67597;SDS011;62026;39.230;9.122;2023-05-27T09:44:27;10.27;;;2.50;;
67597;SDS011;62026;39.230;9.122;2023-05-27T09:46:56;10.00;;;3.22;;
67597;SDS011;62026;39.230;9.122;2023-05-27T09:49:25;12.57;;;3.40;;
67597;SDS011;62026;39.230;9.122;2023-05-27T09:51:54;10.80;;;3.17;;
67597;SDS011;62026;39.230;9.122;2023-05-27T09:54:22;8.73;;;2.67;;
67597;SDS011;62026;39.230;9.122;2023-05-27T09:56:49;7.15;;;2.60;;
67597;SDS011;62026;39.230;9.122;2023-05-27T09:59:17;12.18;;;2.95;;
67597;SDS011;62026;39.230;9.122;2023-05-27T10:01:44;8.48;;;3.03;;
67597;SDS011;62026;39.230;9.122;2023-05-27T10:04:14;15.80;;;3.43;;
67597;SDS011;62026;39.230;9.122;2023-05-27T10:06:41;12.13;;;3.30;;
67597;SDS011;62026;39.230;9.122;2023-05-27T10:09:09;6.78;;;2.85;;
67597;SDS011;62026;39.230;9.122;2023-05-27T10:11:35;10.00;;;2.90;;
67597;SDS011;62026;39.230;9.122;2023-05-27T10:14:03;11.98;;;3.50;;
67597;SDS011;62026;39.230;9.122;2023-05-27T10:16:29;11.70;;;3.00;;
67597;SDS011;62026;39.230;9.122;2023-05-27T10:18:56;9.68;;;3.20;;
67597;SDS011;62026;39.230;9.122;2023-05-27T10:21:25;13.80;;;3.30;;
67597;SDS011;62026;39.230;9.122;2023-05-27T10:23:57;7.38;;;2.80;;
67597;SDS011;62026;39.230;9.122;2023-05-27T10:26:35;11.05;;;3.55;;
67597;SDS011;62026;39.230;9.122;2023-05-27T10:31:35;11.25;;;3.63;;
67597;SDS011;62026;39.230;9.122;2023-05-27T10:34:09;15.43;;;3.80;;
67597;SDS011;62026;39.230;9.122;2023-05-27T10:36:35;13.68;;;3.38;;
67597;SDS011;62026;39.230;9.122;2023-05-27T10:39:05;14.52;;;3.75;;
67597;SDS011;62026;39.230;9.122;2023-05-27T10:41:54;13.23;;;3.63;;
67597;SDS011;62026;39.230;9.122;2023-05-27T10:44:35;8.45;;;3.33;;
67597;SDS011;62026;39.230;9.122;2023-05-27T10:47:12;10.15;;;3.78;;
67597;SDS011;62026;39.230;9.122;2023-05-27T10:49:39;12.00;;;3.67;;
67597;SDS011;62026;39.230;9.122;2023-05-27T10:54:38;7.35;;;3.00;;
67597;SDS011;62026;39.230;9.122;2023-05-27T10:57:06;7.13;;;3.03;;
67597;SDS011;62026;39.230;9.122;2023-05-27T10:59:39;9.77;;;2.90;;
67597;SDS011;62026;39.230;9.122;2023-05-27T11:04:56;13.43;;;3.47;;
67597;SDS011;62026;39.230;9.122;2023-05-27T11:07:22;14.43;;;4.07;;
67597;SDS011;62026;39.230;9.122;2023-05-27T11:09:53;8.57;;;3.58;;
67597;SDS011;62026;39.230;9.122;2023-05-27T11:12:21;9.80;;;3.20;;
67597;SDS011;62026;39.230;9.122;2023-05-27T11:14:49;11.32;;;3.47;;
67597;SDS011;62026;39.230;9.122;2023-05-27T11:17:17;9.93;;;3.42;;
67597;SDS011;62026;39.230;9.122;2023-05-27T11:19:45;10.93;;;3.80;;
67597;SDS011;62026;39.230;9.122;2023-05-27T11:22:12;12.98;;;3.70;;
67597;SDS011;62026;39.230;9.122;2023-05-27T11:24:39;10.90;;;3.60;;
67597;SDS011;62026;39.230;9.122;2023-05-27T11:29:37;11.02;;;4.32;;
67597;SDS011;62026;39.230;9.122;2023-05-27T11:32:04;14.35;;;3.80;;
67597;SDS011;62026;39.230;9.122;2023-05-27T11:34:34;10.35;;;3.13;;
67597;SDS011;62026;39.230;9.122;2023-05-27T11:37:02;11.38;;;2.88;;
67597;SDS011;62026;39.230;9.122;2023-05-27T11:39:29;12.68;;;3.05;;
67597;SDS011;62026;39.230;9.122;2023-05-27T11:41:57;10.93;;;2.60;;
67597;SDS011;62026;39.230;9.122;2023-05-27T11:44:24;7.47;;;2.67;;
67597;SDS011;62026;39.230;9.122;2023-05-27T11:46:52;10.40;;;2.85;;
67597;SDS011;62026;39.230;9.122;2023-05-27T11:49:27;8.00;;;2.70;;
67597;SDS011;62026;39.230;9.122;2023-05-27T11:51:57;9.30;;;2.70;;
67597;SDS011;62026;39.230;9.122;2023-05-27T11:54:25;10.70;;;3.00;;
67597;SDS011;62026;39.230;9.122;2023-05-27T11:56:54;10.73;;;3.13;;
67597;SDS011;62026;39.230;9.122;2023-05-27T11:59:22;12.95;;;3.38;;
67597;SDS011;62026;39.230;9.122;2023-05-27T12:01:49;9.82;;;2.85;;
67597;SDS011;62026;39.230;9.122;2023-05-27T12:04:16;11.65;;;2.70;;
67597;SDS011;62026;39.230;9.122;2023-05-27T12:06:43;12.98;;;2.80;;
67597;SDS011;62026;39.230;9.122;2023-05-27T12:09:10;14.80;;;3.63;;
67597;SDS011;62026;39.230;9.122;2023-05-27T12:11:37;6.55;;;2.50;;
67597;SDS011;62026;39.230;9.122;2023-05-27T12:14:04;7.65;;;2.47;;
67597;SDS011;62026;39.230;9.122;2023-05-27T12:16:30;8.23;;;2.63;;
67597;SDS011;62026;39.230;9.122;2023-05-27T12:18:57;9.70;;;2.58;;
67597;SDS011;62026;39.230;9.122;2023-05-27T12:21:24;12.75;;;2.40;;
67597;SDS011;62026;39.230;9.122;2023-05-27T12:23:50;7.85;;;2.33;;
67597;SDS011;62026;39.230;9.122;2023-05-27T12:26:17;11.68;;;2.55;;
67597;SDS011;62026;39.230;9.122;2023-05-27T12:28:43;11.35;;;2.47;;
67597;SDS011;62026;39.230;9.122;2023-05-27T12:31:10;5.38;;;2.28;;
67597;SDS011;62026;39.230;9.122;2023-05-27T12:33:36;13.13;;;2.60;;
67597;SDS011;62026;39.230;9.122;2023-05-27T12:36:02;10.18;;;2.55;;
67597;SDS011;62026;39.230;9.122;2023-05-27T12:38:31;10.55;;;2.65;;
67597;SDS011;62026;39.230;9.122;2023-05-27T12:40:58;7.38;;;2.47;;
67597;SDS011;62026;39.230;9.122;2023-05-27T12:43:24;7.43;;;2.13;;
67597;SDS011;62026;39.230;9.122;2023-05-27T12:45:50;6.63;;;2.45;;
67597;SDS011;62026;39.230;9.122;2023-05-27T12:48:17;4.32;;;2.42;;
67597;SDS011;62026;39.230;9.122;2023-05-27T12:50:44;9.30;;;2.40;;
67597;SDS011;62026;39.230;9.122;2023-05-27T12:53:10;10.68;;;3.03;;
67597;SDS011;62026;39.230;9.122;2023-05-27T12:55:36;8.48;;;2.75;;
67597;SDS011;62026;39.230;9.122;2023-05-27T12:58:03;10.82;;;2.78;;
67597;SDS011;62026;39.230;9.122;2023-05-27T13:00:30;13.88;;;2.53;;
67597;SDS011;62026;39.230;9.122;2023-05-27T13:02:59;9.02;;;3.03;;
67597;SDS011;62026;39.230;9.122;2023-05-27T13:05:25;10.57;;;2.88;;
67597;SDS011;62026;39.230;9.122;2023-05-27T13:08:01;12.48;;;2.33;;
67597;SDS011;62026;39.230;9.122;2023-05-27T13:10:29;7.68;;;2.75;;
67597;SDS011;62026;39.230;9.122;2023-05-27T13:12:56;10.45;;;2.70;;
67597;SDS011;62026;39.230;9.122;2023-05-27T13:15:24;11.70;;;3.13;;
67597;SDS011;62026;39.230;9.122;2023-05-27T13:17:51;8.98;;;2.90;;
67597;SDS011;62026;39.230;9.122;2023-05-27T13:20:18;9.00;;;2.72;;
67597;SDS011;62026;39.230;9.122;2023-05-27T13:22:49;6.40;;;2.90;;
67597;SDS011;62026;39.230;9.122;2023-05-27T13:25:18;9.40;;;2.78;;
67597;SDS011;62026;39.230;9.122;2023-05-27T13:27:44;7.22;;;3.15;;
67597;SDS011;62026;39.230;9.122;2023-05-27T13:30:11;6.57;;;2.67;;
67597;SDS011;62026;39.230;9.122;2023-05-27T13:32:40;10.07;;;2.75;;
67597;SDS011;62026;39.230;9.122;2023-05-27T13:35:08;6.30;;;2.58;;
67597;SDS011;62026;39.230;9.122;2023-05-27T13:37:36;14.18;;;2.42;;
67597;SDS011;62026;39.230;9.122;2023-05-27T13:40:05;10.07;;;2.55;;
67597;SDS011;62026;39.230;9.122;2023-05-27T13:42:35;7.72;;;2.53;;
67597;SDS011;62026;39.230;9.122;2023-05-27T13:45:02;11.05;;;2.60;;
67597;SDS011;62026;39.230;9.122;2023-05-27T13:47:28;5.82;;;2.70;;
67597;SDS011;62026;39.230;9.122;2023-05-27T13:49:54;11.70;;;3.35;;
67597;SDS011;62026;39.230;9.122;2023-05-27T13:52:20;7.88;;;3.13;;
67597;SDS011;62026;39.230;9.122;2023-05-27T13:54:46;11.52;;;2.67;;
67597;SDS011;62026;39.230;9.122;2023-05-27T13:57:12;5.80;;;2.60;;
67597;SDS011;62026;39.230;9.122;2023-05-27T13:59:38;11.88;;;3.10;;
67597;SDS011;62026;39.230;9.122;2023-05-27T14:02:04;10.75;;;2.90;;
67597;SDS011;62026;39.230;9.122;2023-05-27T14:04:33;9.90;;;2.90;;
67597;SDS011;62026;39.230;9.122;2023-05-27T14:06:59;10.25;;;3.00;;
67597;SDS011;62026;39.230;9.122;2023-05-27T14:09:25;10.95;;;2.70;;
67597;SDS011;62026;39.230;9.122;2023-05-27T14:11:51;7.07;;;2.75;;
67597;SDS011;62026;39.230;9.122;2023-05-27T14:14:17;7.15;;;2.45;;
67597;SDS011;62026;39.230;9.122;2023-05-27T14:16:43;10.40;;;2.83;;
67597;SDS011;62026;39.230;9.122;2023-05-27T14:19:09;10.20;;;3.10;;
67597;SDS011;62026;39.230;9.122;2023-05-27T14:21:35;10.60;;;3.03;;
67597;SDS011;62026;39.230;9.122;2023-05-27T14:24:01;9.70;;;2.70;;
67597;SDS011;62026;39.230;9.122;2023-05-27T14:26:27;16.70;;;3.58;;
67597;SDS011;62026;39.230;9.122;2023-05-27T14:28:53;7.40;;;2.78;;
67597;SDS011;62026;39.230;9.122;2023-05-27T14:31:20;10.73;;;2.92;;
67597;SDS011;62026;39.230;9.122;2023-05-27T14:33:46;11.73;;;2.53;;
67597;SDS011;62026;39.230;9.122;2023-05-27T14:36:12;7.10;;;2.72;;
67597;SDS011;62026;39.230;9.122;2023-05-27T14:38:38;5.75;;;2.83;;
67597;SDS011;62026;39.230;9.122;2023-05-27T14:41:05;6.32;;;2.65;;
67597;SDS011;62026;39.230;9.122;2023-05-27T14:43:31;6.57;;;2.92;;
67597;SDS011;62026;39.230;9.122;2023-05-27T14:45:56;6.80;;;2.75;;
67597;SDS011;62026;39.230;9.122;2023-05-27T14:48:22;10.02;;;3.00;;
67597;SDS011;62026;39.230;9.122;2023-05-27T14:50:50;8.60;;;2.72;;
67597;SDS011;62026;39.230;9.122;2023-05-27T14:53:16;7.82;;;2.80;;
67597;SDS011;62026;39.230;9.122;2023-05-27T14:55:42;7.50;;;2.40;;
67597;SDS011;62026;39.230;9.122;2023-05-27T14:58:08;11.98;;;3.22;;
67597;SDS011;62026;39.230;9.122;2023-05-27T15:00:34;8.82;;;2.13;;
67597;SDS011;62026;39.230;9.122;2023-05-27T15:03:00;9.18;;;2.58;;